Archival Weather

Batten Intl

Racine, Wisconsin (KRAC)

Report from: Thursday, February 22, 2024 12:53 AM CST
Current time: Tuesday, April 23, 2024 3:58 AM CDT

Current weather – Weather history – Daily summaries
Weather forecast

Temperature5.6°C (42.1°F)
Wind chill4.0°C (39.2°F)
Dew point0.6°C (33.1°F)
Winds 4 kts (2.1 m/s, 4.6 mph) North-Northwest (340°)
Visibility10 mi. (16.1 km)
Clouds Ceiling: Overcast 11,000 ft. (3,353 m)
Altimeter29.81 in.Hg (1009 mB)
Relative humidity70 %
Density altitude-910 ft. (-277 m)
Sea-level pressure101.0 kPa (1010 mB, 29.81 in.Hg)
Remarks Fully automated report
Automated weather observing station with precipitation discriminator
Flight conditions Visual Meteorological Conditions
Raw dataKRAC 220653Z AUTO 34004KT 10SM OVC110 06/01 A2981 RMK AO2 SLP095 T00560006
An error has occurred. This application may no longer respond until reloaded. Reload 🗙